| time (UTC) | temp C | wind direction | speed KPH | gust KPH | rain 1hr cm | rain 24hr cm | rain mn cm | humidity % | barometer mb |
| 20260507222535 | 8 | 0.0 | 0.0 | 0.00 | 0.03 | 0.03 | 90 | 1015.0 | |
| 20260507221535 | 8 | 0.0 | 1.6 | 0.00 | 0.03 | 0.03 | 90 | 1014.9 | |
| 20260507220515 | 8 | 0.0 | 1.6 | 0.00 | 0.03 | 0.03 | 89 | 1014.8 | |
| 20260507215515 | 8 | 0.0 | 0.0 | 0.00 | 0.03 | 0.03 | 89 | 1014.8 | |
| 20260507214515 | 8 | 0.0 | 0.0 | 0.00 | 0.03 | 0.03 | 88 | 1014.8 | |
| 20260507213515 | 9 | 0.0 | 0.0 | 0.00 | 0.03 | 0.03 | 87 | 1014.8 | |
| 20260507212515 | 9 | 0.0 | 0.0 | 0.00 | 0.03 | 0.03 | 86 | 1014.8 | |
| 20260507211515 | 9 | 0.0 | 1.6 | 0.00 | 0.03 | 0.03 | 86 | 1014.8 | |
| 20260507210515 | 10 | 0.0 | 1.6 | 0.00 | 0.03 | 0.03 | 85 | 1014.7 | |
| 20260507205515 | 10 | 0.0 | 1.6 | 0.00 | 0.03 | 0.03 | 85 | 1014.5 | |
| 20260507204515 | 10 | 0.0 | 1.6 | 0.00 | 0.03 | 0.03 | 85 | 1014.5 | |
| 20260507203515 | 10 | 0.0 | 1.6 | 0.00 | 0.03 | 0.03 | 85 | 1014.5 | |
| 20260507202515 | 11 | 0.0 | 0.0 | 0.00 | 0.03 | 0.03 | 83 | 1014.3 | |
| 20260507201535 | 11 | 0.0 | 0.0 | 0.00 | 0.03 | 0.03 | 82 | 1014.3 | |
| 20260507200515 | 11 | 0.0 | 1.6 | 0.00 | 0.03 | 0.03 | 82 | 1014.2 | |
| 20260507195515 | 11 | 0.0 | 1.6 | 0.00 | 0.03 | 0.03 | 81 | 1014.1 | |
| 20260507194515 | 11 | 0.0 | 1.6 | 0.00 | 0.03 | 0.03 | 80 | 1014.1 | |
| 20260507193517 | 12 | 0.0 | 1.6 | 0.00 | 0.03 | 0.03 | 80 | 1014.0 | |
| 20260507192517 | 12 | 113 | 1.6 | 3.2 | 0.00 | 0.03 | 0.03 | 80 | 1014.0 |
| 20260507191517 | 12 | 0.0 | 3.2 | 0.00 | 0.03 | 0.03 | 81 | 1014.0 | |
| 20260507190517 | 12 | 0.0 | 0.0 | 0.00 | 0.03 | 0.03 | 79 | 1013.9 | |
| 20260507185537 | 13 | 0.0 | 1.6 | 0.00 | 0.03 | 0.03 | 78 | 1013.9 | |
| 20260507184515 | 13 | 0.0 | 0.0 | 0.03 | 0.03 | 0.03 | 77 | 1013.9 | |
| 20260507183557 | 12 | 0.0 | 0.0 | 0.03 | 0.03 | 0.03 | 82 | 1013.9 | |
| 20260507182557 | 12 | 0.0 | 0.0 | 0.03 | 0.03 | 0.03 | 80 | 1013.9 | |
| 20260507181517 | 12 | 0.0 | 0.0 | 0.03 | 0.03 | 0.03 | 79 | 1013.8 | |
| 20260507180517 | 12 | 0.0 | 0.0 | 0.03 | 0.03 | 0.03 | 77 | 1013.7 | |
| 20260507175517 | 12 | 203 | 1.6 | 3.2 | 0.03 | 0.03 | 0.03 | 76 | 1013.6 |
| 20260507174517 | 13 | 0.0 | 1.6 | 0.00 | 0.00 | 0.00 | 72 | 1013.7 | |
| 20260507173517 | 13 | 0.0 | 3.2 | 0.00 | 0.00 | 0.00 | 71 | 1013.7 | |
| 20260507172517 | 13 | 0.0 | 3.2 | 0.00 | 0.00 | 0.00 | 68 | 1013.6 | |
| 20260507171517 | 13 | 203 | 1.6 | 4.8 | 0.00 | 0.00 | 0.00 | 65 | 1013.6 |
| 20260507170517 | 13 | 203 | 1.6 | 6.4 | 0.00 | 0.00 | 0.00 | 64 | 1013.6 |
| 20260507165537 | 14 | 225 | 1.6 | 6.4 | 0.00 | 0.00 | 0.00 | 64 | 1013.6 |
| 20260507164537 | 14 | 203 | 3.2 | 9.7 | 0.00 | 0.00 | 0.00 | 63 | 1013.7 |
| 20260507163517 | 14 | 135 | 3.2 | 9.7 | 0.00 | 0.00 | 0.00 | 62 | 1013.7 |
| 20260507162517 | 14 | 135 | 4.8 | 12.9 | 0.00 | 0.00 | 0.00 | 61 | 1013.7 |
| 20260507161517 | 14 | 158 | 3.2 | 8.0 | 0.00 | 0.00 | 0.00 | 62 | 1013.7 |
| 20260507160537 | 14 | 113 | 3.2 | 9.7 | 0.00 | 0.00 | 0.00 | 61 | 1013.6 |
| 20260507155517 | 14 | 113 | 3.2 | 9.7 | 0.00 | 0.00 | 0.00 | 60 | 1013.6 |
| 20260507154537 | 15 | 203 | 3.2 | 9.7 | 0.00 | 0.00 | 0.00 | 60 | 1013.7 |
| 20260507153517 | 15 | 158 | 3.2 | 11.3 | 0.00 | 0.00 | 0.00 | 58 | 1013.7 |
| 20260507152617 | 15 | 135 | 4.8 | 14.5 | 0.00 | 0.00 | 0.00 | 57 | 1013.7 |
| 20260507151517 | 15 | 135 | 4.8 | 14.5 | 0.00 | 0.00 | 0.00 | 57 | 1013.8 |
| 20260507150517 | 15 | 113 | 3.2 | 11.3 | 0.00 | 0.00 | 0.00 | 60 | 1013.8 |
| 20260507145517 | 14 | 135 | 3.2 | 11.3 | 0.00 | 0.00 | 0.00 | 62 | 1013.8 |
| 20260507144517 | 14 | 135 | 3.2 | 11.3 | 0.00 | 0.00 | 0.00 | 61 | 1014.1 |
| 20260507143537 | 14 | 135 | 3.2 | 9.7 | 0.00 | 0.00 | 0.00 | 61 | 1014.1 |
| 20260507142537 | 14 | 225 | 3.2 | 9.7 | 0.00 | 0.00 | 0.00 | 59 | 1014.2 |
| 20260507141517 | 14 | 135 | 4.8 | 16.1 | 0.00 | 0.00 | 0.00 | 58 | 1014.3 |
| 20260507140516 | 15 | 135 | 4.8 | 12.9 | 0.00 | 0.00 | 0.00 | 58 | 1014.3 |
| 20260507135517 | 15 | 135 | 4.8 | 12.9 | 0.00 | 0.00 | 0.00 | 60 | 1014.3 |
| 20260507134516 | 15 | 135 | 8.0 | 17.7 | 0.00 | 0.00 | 0.00 | 59 | 1014.3 |
| 20260507133517 | 15 | 113 | 3.2 | 9.7 | 0.00 | 0.00 | 0.00 | 60 | 1014.4 |
| 20260507132516 | 15 | 113 | 6.4 | 16.1 | 0.00 | 0.00 | 0.00 | 59 | 1014.4 |
| 20260507131516 | 15 | 203 | 6.4 | 16.1 | 0.00 | 0.00 | 0.00 | 63 | 1014.5 |
| 20260507130517 | 14 | 113 | 4.8 | 17.7 | 0.00 | 0.00 | 0.00 | 65 | 1014.7 |
| 20260507125516 | 14 | 135 | 4.8 | 11.3 | 0.00 | 0.00 | 0.00 | 64 | 1014.8 |
| 20260507124516 | 14 | 113 | 6.4 | 22.5 | 0.00 | 0.00 | 0.00 | 64 | 1014.7 |
| 20260507123516 | 14 | 135 | 4.8 | 11.3 | 0.00 | 0.00 | 0.00 | 65 | 1014.7 |
| 20260507122517 | 13 | 135 | 6.4 | 14.5 | 0.00 | 0.00 | 0.00 | 64 | 1014.8 |
| 20260507121517 | 13 | 113 | 4.8 | 12.9 | 0.00 | 0.00 | 0.00 | 64 | 1014.8 |
| 20260507120517 | 13 | 180 | 4.8 | 14.5 | 0.00 | 0.00 | 0.00 | 65 | 1014.8 |
| 20260507115517 | 13 | 203 | 6.4 | 17.7 | 0.00 | 0.00 | 0.00 | 68 | 1014.9 |
| 20260507114516 | 13 | 113 | 4.8 | 12.9 | 0.00 | 0.00 | 0.00 | 68 | 1014.9 |
| 20260507113536 | 13 | 203 | 6.4 | 14.5 | 0.00 | 0.00 | 0.00 | 68 | 1014.9 |
| 20260507112516 | 12 | 113 | 3.2 | 9.7 | 0.00 | 0.00 | 0.00 | 70 | 1015.1 |
| 20260507111517 | 12 | 203 | 6.4 | 12.9 | 0.00 | 0.00 | 0.00 | 69 | 1015.0 |
| 20260507110516 | 11 | 113 | 4.8 | 16.1 | 0.00 | 0.00 | 0.00 | 71 | 1015.1 |
| 20260507105536 | 11 | 113 | 4.8 | 12.9 | 0.00 | 0.00 | 0.00 | 73 | 1015.2 |
| 20260507104516 | 11 | 113 | 4.8 | 11.3 | 0.00 | 0.00 | 0.00 | 75 | 1015.2 |
| 20260507103556 | 10 | 113 | 4.8 | 9.7 | 0.00 | 0.00 | 0.00 | 77 | 1015.5 |
| 20260507102516 | 10 | 135 | 4.8 | 12.9 | 0.00 | 0.00 | 0.00 | 78 | 1015.5 |
| 20260507101517 | 10 | 113 | 4.8 | 11.3 | 0.00 | 0.00 | 0.00 | 79 | 1015.5 |
| 20260507100516 | 10 | 135 | 4.8 | 11.3 | 0.00 | 0.00 | 0.00 | 80 | 1015.4 |
| 20260507095516 | 9 | 135 | 3.2 | 11.3 | 0.00 | 0.00 | 0.00 | 81 | 1015.5 |
| 20260507094516 | 9 | 113 | 3.2 | 12.9 | 0.00 | 0.00 | 0.00 | 82 | 1015.5 |
| 20260507093516 | 8 | 113 | 3.2 | 11.3 | 0.00 | 0.00 | 0.00 | 83 | 1015.4 |
| 20260507092516 | 8 | 135 | 3.2 | 8.0 | 0.00 | 0.00 | 0.00 | 84 | 1015.4 |
| 20260507091516 | 8 | 135 | 3.2 | 8.0 | 0.00 | 0.00 | 0.00 | 84 | 1015.4 |
| 20260507090516 | 8 | 113 | 3.2 | 9.7 | 0.00 | 0.00 | 0.00 | 85 | 1015.3 |
| 20260507085516 | 8 | 135 | 3.2 | 11.3 | 0.00 | 0.00 | 0.00 | 85 | 1015.5 |
| 20260507084516 | 8 | 135 | 3.2 | 6.4 | 0.00 | 0.00 | 0.00 | 85 | 1015.4 |
| 20260507083516 | 8 | 135 | 3.2 | 8.0 | 0.00 | 0.00 | 0.00 | 85 | 1015.4 |
| 20260507082516 | 7 | 135 | 3.2 | 11.3 | 0.00 | 0.00 | 0.00 | 86 | 1015.3 |
| 20260507081516 | 7 | 135 | 3.2 | 8.0 | 0.00 | 0.00 | 0.00 | 86 | 1015.3 |
| 20260507080516 | 7 | 113 | 4.8 | 12.9 | 0.00 | 0.00 | 0.00 | 86 | 1015.4 |
| 20260507075516 | 7 | 135 | 3.2 | 12.9 | 0.00 | 0.00 | 0.00 | 86 | 1015.3 |
| 20260507074516 | 7 | 135 | 3.2 | 9.7 | 0.00 | 0.00 | 0.00 | 86 | 1015.4 |
| 20260507073536 | 7 | 135 | 3.2 | 12.9 | 0.00 | 0.00 | 0.00 | 86 | 1015.3 |
| 20260507072516 | 7 | 135 | 4.8 | 11.3 | 0.00 | 0.00 | 0.00 | 86 | 1015.3 |
| 20260507071516 | 7 | 135 | 3.2 | 8.0 | 0.00 | 0.00 | 0.00 | 86 | 1015.4 |
| 20260507070516 | 7 | 113 | 3.2 | 9.7 | 0.00 | 0.00 | 0.00 | 86 | 1015.2 |
| 20260507065516 | 7 | 135 | 3.2 | 8.0 | 0.00 | 0.00 | 0.00 | 86 | 1015.2 |
| 20260507064516 | 7 | 113 | 3.2 | 8.0 | 0.00 | 0.00 | 0.00 | 86 | 1015.2 |
| 20260507063516 | 7 | 135 | 1.6 | 6.4 | 0.00 | 0.00 | 0.00 | 86 | 1015.2 |
| 20260507062516 | 7 | 135 | 1.6 | 6.4 | 0.00 | 0.00 | 0.00 | 87 | 1015.2 |
| 20260507061656 | 7 | 113 | 1.6 | 6.4 | 0.00 | 0.00 | 0.00 | 86 | 1015.3 |
| 20260507060516 | 7 | 113 | 1.6 | 6.4 | 0.00 | 0.00 | 0.00 | 87 | 1015.1 |
| 20260507055516 | 7 | 113 | 1.6 | 8.0 | 0.00 | 0.00 | 0.00 | 86 | 1015.2 |
| 20260507054516 | 7 | 113 | 3.2 | 8.0 | 0.00 | 0.00 | 0.00 | 86 | 1015.0 |
| 20260507053536 | 7 | 135 | 1.6 | 4.8 | 0.00 | 0.00 | 0.00 | 86 | 1015.0 |
| 20260507052516 | 7 | 90 | 1.6 | 4.8 | 0.00 | 0.00 | 0.00 | 86 | 1015.1 |
| 20260507051516 | 7 | 135 | 1.6 | 4.8 | 0.00 | 0.00 | 0.00 | 86 | 1014.9 |
| 20260507050516 | 7 | 135 | 1.6 | 8.0 | 0.00 | 0.00 | 0.00 | 86 | 1014.9 |
| 20260507045536 | 7 | 0.0 | 3.2 | 0.00 | 0.00 | 0.00 | 86 | 1014.9 | |
| 20260507044516 | 6 | 135 | 1.6 | 6.4 | 0.00 | 0.00 | 0.00 | 86 | 1014.9 |
| 20260507043516 | 6 | 113 | 1.6 | 8.0 | 0.00 | 0.00 | 0.00 | 86 | 1014.8 |
| 20260507042516 | 7 | 135 | 3.2 | 6.4 | 0.00 | 0.00 | 0.00 | 86 | 1015.0 |
| 20260507041516 | 7 | 225 | 1.6 | 8.0 | 0.00 | 0.00 | 0.00 | 86 | 1014.9 |
| 20260507040516 | 7 | 113 | 1.6 | 9.7 | 0.00 | 0.00 | 0.00 | 86 | 1014.9 |
| 20260507035516 | 7 | 135 | 1.6 | 9.7 | 0.00 | 0.00 | 0.00 | 85 | 1015.0 |
| 20260507034516 | 7 | 135 | 1.6 | 4.8 | 0.00 | 0.00 | 0.00 | 85 | 1015.0 |
| 20260507033516 | 7 | 135 | 1.6 | 4.8 | 0.00 | 0.00 | 0.00 | 85 | 1014.9 |
| 20260507032516 | 7 | 135 | 3.2 | 8.0 | 0.00 | 0.00 | 0.00 | 85 | 1014.9 |
| 20260507031515 | 7 | 135 | 1.6 | 6.4 | 0.00 | 0.00 | 0.00 | 85 | 1015.0 |
| 20260507030515 | 6 | 135 | 1.6 | 4.8 | 0.00 | 0.00 | 0.00 | 85 | 1015.0 |
| 20260507025556 | 6 | 135 | 4.8 | 9.7 | 0.00 | 0.00 | 0.00 | 85 | 1014.9 |
| 20260507024515 | 6 | 135 | 3.2 | 8.0 | 0.00 | 0.00 | 0.00 | 85 | 1015.1 |
| 20260507023515 | 6 | 135 | 1.6 | 6.4 | 0.00 | 0.00 | 0.00 | 85 | 1015.2 |
| 20260507022515 | 6 | 135 | 1.6 | 4.8 | 0.00 | 0.00 | 0.00 | 85 | 1015.2 |
| 20260507021515 | 6 | 158 | 1.6 | 4.8 | 0.00 | 0.00 | 0.00 | 85 | 1015.1 |
| 20260507020555 | 6 | 135 | 1.6 | 9.7 | 0.00 | 0.00 | 0.00 | 84 | 1015.1 |
| 20260507015535 | 7 | 158 | 1.6 | 3.2 | 0.00 | 0.00 | 0.00 | 84 | 1015.1 |
| 20260507014516 | 7 | 113 | 1.6 | 4.8 | 0.00 | 0.00 | 0.00 | 84 | 1015.3 |
| 20260507013515 | 7 | 113 | 1.6 | 8.0 | 0.00 | 0.00 | 0.00 | 84 | 1015.3 |
| 20260507012515 | 7 | 113 | 1.6 | 4.8 | 0.00 | 0.00 | 0.00 | 83 | 1015.3 |
| 20260507011516 | 7 | 135 | 1.6 | 4.8 | 0.00 | 0.00 | 0.00 | 83 | 1015.3 |
| 20260507010535 | 7 | 135 | 1.6 | 6.4 | 0.00 | 0.00 | 0.00 | 83 | 1015.3 |
| 20260507005515 | 7 | 135 | 1.6 | 9.7 | 0.00 | 0.00 | 0.00 | 83 | 1015.3 |
| 20260507004516 | 7 | 135 | 1.6 | 6.4 | 0.00 | 0.00 | 0.00 | 83 | 1015.5 |
| 20260507003535 | 7 | 0.0 | 4.8 | 0.00 | 0.00 | 0.00 | 82 | 1015.6 | |
| 20260507002535 | 7 | 0.0 | 3.2 | 0.00 | 0.00 | 0.00 | 82 | 1015.5 | |
| 20260507001515 | 7 | 113 | 1.6 | 3.2 | 0.00 | 0.00 | 0.00 | 81 | 1015.6 |
| 20260507000516 | 7 | 113 | 1.6 | 6.4 | 0.00 | 0.00 | 0.00 | 80 | 1015.6 |
| 20260506235515 | 7 | 135 | 3.2 | 9.7 | 0.00 | 0.00 | 0.00 | 80 | 1015.5 |
| 20260506234515 | 7 | 158 | 1.6 | 4.8 | 0.00 | 0.00 | 0.00 | 80 | 1015.4 |
| 20260506233515 | 7 | 135 | 1.6 | 12.9 | 0.00 | 0.00 | 0.00 | 81 | 1015.3 |
| 20260506232515 | 7 | 135 | 1.6 | 6.4 | 0.00 | 0.00 | 0.00 | 81 | 1015.4 |
| 20260506231515 | 7 | 135 | 1.6 | 6.4 | 0.00 | 0.00 | 0.00 | 80 | 1015.3 |
| 20260506230515 | 8 | 135 | 1.6 | 6.4 | 0.00 | 0.00 | 0.00 | 79 | 1015.3 |
| 20260506225535 | 8 | 135 | 1.6 | 8.0 | 0.00 | 0.00 | 0.00 | 79 | 1015.3 |
| 20260506224515 | 8 | 135 | 1.6 | 4.8 | 0.00 | 0.00 | 0.00 | 78 | 1015.4 |
| 20260506223515 | 8 | 0.0 | 3.2 | 0.00 | 0.00 | 0.00 | 77 | 1015.2 |